Time;durP1;ratioP1;P1;durP2;ratioP2;P2;SDS_P1;SDS_P2;PMS_P1;PMS_P2;Temp;Humidity;BMP_temperature;BMP_pressure;BME280_temperature;BME280_humidity;BME280_pressure;Samples;Min_cycle;Max_cycle;Signal;HPM_P1;HPM_P2
2022/12/08 00:02:16;;;;;;;38.47;22.50;;;;;;;;;;5054961;28;20036;-78
2022/12/08 00:10:12;;;;;;;38.77;23.73;;;;;;;;;;5044038;28;20086;-78
2022/12/08 00:12:38;;;;;;;40.43;24.17;;;;;;;;;;5056341;28;20055;-78
2022/12/08 00:15:04;;;;;;;40.60;22.73;;;;;;;;;;5058942;28;20122;-77
2022/12/08 00:17:30;;;;;;;38.70;22.50;;;;;;;;;;5059482;28;20444;-78
2022/12/08 00:19:56;;;;;;;47.23;22.67;;;;;;;;;;5060152;28;21701;-78
2022/12/08 00:22:22;;;;;;;38.47;22.60;;;;;;;;;;5062561;28;20452;-77
2022/12/08 00:24:48;;;;;;;37.43;22.53;;;;;;;;;;5061215;28;20029;-78
2022/12/08 00:27:16;;;;;;;35.63;21.87;;;;;;;;;;5059756;28;20029;-77
2022/12/08 00:29:43;;;;;;;37.50;21.73;;;;;;;;;;5062300;28;20036;-78
2022/12/08 00:32:09;;;;;;;42.33;22.23;;;;;;;;;;5058139;28;20350;-78
2022/12/08 00:34:37;;;;;;;38.13;21.37;;;;;;;;;;5047002;28;20122;-78
2022/12/08 00:37:03;;;;;;;34.97;21.07;;;;;;;;;;5055372;28;20511;-78
2022/12/08 00:39:30;;;;;;;37.87;22.20;;;;;;;;;;5056116;28;20040;-78
2022/12/08 00:42:11;;;;;;;36.90;22.33;;;;;;;;;;5044506;28;20025;-78
2022/12/08 00:44:37;;;;;;;40.07;23.67;;;;;;;;;;5060349;28;20063;-77
2022/12/08 00:47:03;;;;;;;40.17;23.93;;;;;;;;;;5057416;28;20022;-77
2022/12/08 00:49:29;;;;;;;39.27;22.87;;;;;;;;;;5063714;28;20032;-77
2022/12/08 00:51:55;;;;;;;43.17;24.57;;;;;;;;;;5043252;28;20033;-78
2022/12/08 00:54:24;;;;;;;41.87;23.57;;;;;;;;;;5061643;28;20036;-78
2022/12/08 00:56:51;;;;;;;38.63;22.23;;;;;;;;;;5056523;28;20029;-77
2022/12/08 00:59:17;;;;;;;46.43;23.43;;;;;;;;;;5056229;28;20098;-78
2022/12/08 01:01:46;;;;;;;38.67;22.20;;;;;;;;;;5061951;28;20032;-78
2022/12/08 01:04:16;;;;;;;37.37;22.63;;;;;;;;;;5041502;28;20026;-77
2022/12/08 01:06:43;;;;;;;37.13;24.20;;;;;;;;;;5059103;28;20029;-76
2022/12/08 01:09:09;;;;;;;34.07;22.20;;;;;;;;;;5056941;28;20025;-77
2022/12/08 01:11:36;;;;;;;39.90;23.40;;;;;;;;;;5059090;28;20120;-77
2022/12/08 01:14:02;;;;;;;36.67;22.90;;;;;;;;;;5056653;28;20037;-78
2022/12/08 01:16:29;;;;;;;37.77;23.53;;;;;;;;;;5072398;28;20445;-78
2022/12/08 01:18:58;;;;;;;39.57;21.90;;;;;;;;;;5070398;28;20025;-78
2022/12/08 01:21:24;;;;;;;42.00;22.47;;;;;;;;;;5039615;28;20032;-77
2022/12/08 01:23:50;;;;;;;36.83;23.10;;;;;;;;;;5050056;28;20104;-78
2022/12/08 01:26:17;;;;;;;36.20;23.33;;;;;;;;;;5058461;28;20029;-77
2022/12/08 01:28:43;;;;;;;33.70;22.07;;;;;;;;;;5058444;28;20021;-78
2022/12/08 01:31:14;;;;;;;32.73;21.73;;;;;;;;;;5067675;28;20101;-78
2022/12/08 01:33:43;;;;;;;36.43;22.53;;;;;;;;;;5050018;28;20029;-77
2022/12/08 01:36:18;;;;;;;37.97;21.93;;;;;;;;;;5058321;28;20037;-78
2022/12/08 01:38:44;;;;;;;32.60;21.27;;;;;;;;;;5065460;28;20040;-78
2022/12/08 01:41:13;;;;;;;38.53;21.20;;;;;;;;;;5069011;28;20818;-78
2022/12/08 01:43:54;;;;;;;33.83;21.57;;;;;;;;;;5044590;28;20069;-77
2022/12/08 01:46:20;;;;;;;32.50;20.30;;;;;;;;;;5070223;28;20025;-78
2022/12/08 01:48:46;;;;;;;34.90;22.47;;;;;;;;;;5069435;28;20026;-78
2022/12/08 01:51:13;;;;;;;33.57;20.50;;;;;;;;;;5062132;28;20060;-78
2022/12/08 01:53:39;;;;;;;30.47;21.17;;;;;;;;;;5058750;28;20446;-78
2022/12/08 01:56:05;;;;;;;31.20;20.40;;;;;;;;;;5074440;28;20025;-78
2022/12/08 01:58:31;;;;;;;33.57;20.40;;;;;;;;;;5077841;28;20032;-78
2022/12/08 02:00:57;;;;;;;33.47;21.87;;;;;;;;;;5080299;28;20143;-78
2022/12/08 02:03:33;;;;;;;28.73;19.60;;;;;;;;;;5046578;28;20405;-77
2022/12/08 02:06:02;;;;;;;38.00;20.30;;;;;;;;;;5053516;28;20026;-77
2022/12/08 02:08:29;;;;;;;29.70;18.43;;;;;;;;;;5061844;28;20108;-78
2022/12/08 02:10:55;;;;;;;30.93;19.10;;;;;;;;;;5057277;28;20364;-78
2022/12/08 02:13:21;;;;;;;30.63;19.07;;;;;;;;;;5060757;28;20436;-77
2022/12/08 02:15:47;;;;;;;30.53;18.13;;;;;;;;;;5050259;28;20446;-78
2022/12/08 02:18:30;;;;;;;29.00;17.70;;;;;;;;;;5068869;28;20025;-77
2022/12/08 02:21:01;;;;;;;28.23;17.95;;;;;;;;;;5055600;28;20027;-77
2022/12/08 02:23:34;;;;;;;25.97;17.03;;;;;;;;;;5063253;28;20579;-77
2022/12/08 02:26:19;;;;;;;31.07;16.63;;;;;;;;;;5068534;28;20025;-77
2022/12/08 02:28:45;;;;;;;28.37;16.60;;;;;;;;;;5070640;28;20461;-78
2022/12/08 02:31:32;;;;;;;25.23;15.97;;;;;;;;;;5057591;28;20025;-78
2022/12/08 02:34:05;;;;;;;27.37;15.53;;;;;;;;;;5064503;28;20116;-77
2022/12/08 02:36:31;;;;;;;;;;;;;;;;;;5064719;28;20033;-77
2022/12/08 02:39:23;;;;;;;25.63;13.60;;;;;;;;;;5071204;28;19920;-79
2022/12/08 02:41:56;;;;;;;20.47;12.13;;;;;;;;;;5069405;28;20021;-78
2022/12/08 02:44:25;;;;;;;22.67;12.63;;;;;;;;;;5062921;28;20052;-77
2022/12/08 02:46:57;;;;;;;24.60;12.80;;;;;;;;;;5043681;28;20060;-78
2022/12/08 02:49:33;;;;;;;30.17;14.75;;;;;;;;;;5076533;28;20031;-78
2022/12/08 02:52:05;;;;;;;23.23;12.60;;;;;;;;;;5051301;28;20053;-78
2022/12/08 02:54:32;;;;;;;18.88;12.13;;;;;;;;;;5066100;28;20032;-77
2022/12/08 02:57:21;;;;;;;23.67;13.93;;;;;;;;;;5055942;28;20083;-79
2022/12/08 02:59:47;;;;;;;20.33;12.83;;;;;;;;;;5063701;28;20413;-78
2022/12/08 03:02:16;;;;;;;22.20;14.17;;;;;;;;;;5070336;28;20032;-79
2022/12/08 03:04:49;;;;;;;21.97;13.17;;;;;;;;;;5054617;28;20021;-78
2022/12/08 03:07:15;;;;;;;25.60;13.02;;;;;;;;;;5061261;28;20121;-78
2022/12/08 03:09:40;;;;;;;21.23;13.10;;;;;;;;;;5067792;28;20063;-78
2022/12/08 03:12:30;;;;;;;22.37;12.30;;;;;;;;;;5066908;28;20044;-78
2022/12/08 03:14:58;;;;;;;27.27;13.27;;;;;;;;;;5054026;28;20515;-78
2022/12/08 03:17:28;;;;;;;20.40;13.27;;;;;;;;;;5036939;28;20453;-78
2022/12/08 03:19:57;;;;;;;24.87;13.00;;;;;;;;;;5053578;28;20429;-77
2022/12/08 03:22:24;;;;;;;22.03;12.77;;;;;;;;;;5064707;28;20029;-78
2022/12/08 03:24:51;;;;;;;22.03;13.93;;;;;;;;;;5060086;28;20464;-77
2022/12/08 03:27:19;;;;;;;23.03;12.70;;;;;;;;;;5060471;28;20025;-78
2022/12/08 03:29:50;;;;;;;21.13;13.23;;;;;;;;;;5060939;28;20099;-78
2022/12/08 03:32:38;;;;;;;22.47;12.33;;;;;;;;;;5055901;28;20025;-77
2022/12/08 03:35:06;;;;;;;19.67;12.40;;;;;;;;;;5055075;28;20060;-77
2022/12/08 03:37:34;;;;;;;17.87;12.03;;;;;;;;;;5080552;28;20029;-77
2022/12/08 03:40:02;;;;;;;23.47;12.70;;;;;;;;;;5042431;28;20108;-77
2022/12/08 03:42:28;;;;;;;20.27;11.63;;;;;;;;;;5070710;28;20044;-78
2022/12/08 03:44:54;;;;;;;23.97;12.80;;;;;;;;;;5067349;28;20111;-78
2022/12/08 03:47:20;;;;;;;28.03;14.40;;;;;;;;;;5051612;28;20056;-77
2022/12/08 03:49:47;;;;;;;20.87;13.10;;;;;;;;;;5061431;28;20050;-78
2022/12/08 03:52:13;;;;;;;22.23;13.40;;;;;;;;;;5077747;28;20042;-78
2022/12/08 03:54:39;;;;;;;26.37;13.97;;;;;;;;;;5051823;28;20036;-77
2022/12/08 03:57:05;;;;;;;24.73;13.70;;;;;;;;;;5065335;28;20087;-78
2022/12/08 03:59:31;;;;;;;24.50;14.20;;;;;;;;;;5057322;28;20453;-77
2022/12/08 04:01:57;;;;;;;20.30;13.33;;;;;;;;;;5059664;28;20434;-77
2022/12/08 04:04:23;;;;;;;26.87;14.40;;;;;;;;;;5080189;28;20464;-77
2022/12/08 04:06:49;;;;;;;25.10;14.03;;;;;;;;;;5079632;28;20021;-78
2022/12/08 04:09:15;;;;;;;27.67;15.17;;;;;;;;;;5057539;28;20036;-78
2022/12/08 04:11:44;;;;;;;23.17;14.10;;;;;;;;;;5058720;28;20031;-78
2022/12/08 04:14:10;;;;;;;28.60;15.73;;;;;;;;;;5049029;28;20029;-79
2022/12/08 04:16:36;;;;;;;26.17;15.57;;;;;;;;;;5070907;28;20025;-78
2022/12/08 04:19:02;;;;;;;25.37;15.17;;;;;;;;;;5061175;28;20346;-78
2022/12/08 04:21:28;;;;;;;24.97;15.67;;;;;;;;;;5056219;28;20040;-79
2022/12/08 04:23:54;;;;;;;26.97;15.07;;;;;;;;;;5062414;28;20020;-78
2022/12/08 04:26:20;;;;;;;27.73;16.20;;;;;;;;;;5041179;28;20021;-78
2022/12/08 04:28:47;;;;;;;23.00;15.00;;;;;;;;;;5059633;28;20362;-78
2022/12/08 04:31:13;;;;;;;31.87;15.70;;;;;;;;;;5057945;28;20310;-78
2022/12/08 04:33:39;;;;;;;24.53;15.73;;;;;;;;;;5063953;28;20037;-78
2022/12/08 04:36:05;;;;;;;24.83;15.00;;;;;;;;;;5059555;28;20033;-78
2022/12/08 04:38:32;;;;;;;27.07;17.27;;;;;;;;;;5065522;28;20033;-78
2022/12/08 04:40:58;;;;;;;26.27;15.77;;;;;;;;;;5060229;28;20107;-78
2022/12/08 04:43:24;;;;;;;24.67;15.57;;;;;;;;;;5066729;28;20025;-78
2022/12/08 04:45:50;;;;;;;27.80;16.07;;;;;;;;;;5063654;28;20100;-78
2022/12/08 04:48:16;;;;;;;28.53;15.77;;;;;;;;;;5075641;28;20025;-78
2022/12/08 04:50:43;;;;;;;30.27;17.10;;;;;;;;;;5070490;28;20021;-78
2022/12/08 04:53:10;;;;;;;31.17;17.27;;;;;;;;;;5047313;28;20053;-77
2022/12/08 04:55:40;;;;;;;33.67;17.87;;;;;;;;;;5068605;28;20370;-77
2022/12/08 04:58:07;;;;;;;28.40;16.20;;;;;;;;;;5073090;28;20119;-78
2022/12/08 05:00:33;;;;;;;37.40;18.03;;;;;;;;;;5062576;28;20024;-78
2022/12/08 05:02:59;;;;;;;32.97;17.63;;;;;;;;;;5070706;28;20060;-79
2022/12/08 05:05:25;;;;;;;33.73;17.90;;;;;;;;;;5061988;28;20026;-78
2022/12/08 05:07:51;;;;;;;31.77;17.33;;;;;;;;;;5072939;28;20030;-79
2022/12/08 05:10:17;;;;;;;35.00;19.93;;;;;;;;;;5081736;28;20447;-78
2022/12/08 05:12:43;;;;;;;36.40;20.03;;;;;;;;;;5063190;28;20043;-78
2022/12/08 05:15:09;;;;;;;33.60;19.90;;;;;;;;;;5062223;28;20060;-77
2022/12/08 05:17:37;;;;;;;40.87;19.57;;;;;;;;;;5057663;28;20029;-78
2022/12/08 05:20:04;;;;;;;41.37;20.70;;;;;;;;;;5056170;28;20063;-78
2022/12/08 05:22:30;;;;;;;35.07;20.37;;;;;;;;;;5056986;28;20068;-77
2022/12/08 05:24:56;;;;;;;37.20;21.57;;;;;;;;;;5063496;28;20025;-78
2022/12/08 05:27:22;;;;;;;43.03;21.43;;;;;;;;;;5062941;28;20025;-78
2022/12/08 05:29:49;;;;;;;40.63;23.27;;;;;;;;;;5066201;28;20026;-78
2022/12/08 05:32:15;;;;;;;41.03;24.87;;;;;;;;;;5062907;28;20049;-78
2022/12/08 05:34:41;;;;;;;48.10;24.37;;;;;;;;;;5067273;28;20036;-78
2022/12/08 05:37:07;;;;;;;41.53;25.00;;;;;;;;;;5046720;28;20076;-79
2022/12/08 05:39:33;;;;;;;40.43;21.87;;;;;;;;;;5064628;28;20040;-78
2022/12/08 05:41:59;;;;;;;44.70;24.60;;;;;;;;;;5063766;28;20041;-78
2022/12/08 05:44:25;;;;;;;43.53;24.03;;;;;;;;;;5047149;28;20033;-78
2022/12/08 05:46:51;;;;;;;45.13;23.53;;;;;;;;;;5060911;28;21789;-78
2022/12/08 05:49:17;;;;;;;45.50;23.50;;;;;;;;;;5059375;28;20606;-78
2022/12/08 05:51:43;;;;;;;49.80;25.73;;;;;;;;;;5063675;28;20064;-78
2022/12/08 05:54:13;;;;;;;44.83;25.03;;;;;;;;;;5060506;28;20072;-78
2022/12/08 05:56:39;;;;;;;48.90;24.87;;;;;;;;;;5061308;28;20036;-78
2022/12/08 05:59:10;;;;;;;52.33;25.03;;;;;;;;;;5061587;28;20037;-77
2022/12/08 06:01:39;;;;;;;44.00;23.70;;;;;;;;;;5044621;28;20037;-78
2022/12/08 06:04:05;;;;;;;49.03;24.87;;;;;;;;;;5059244;28;20025;-78
2022/12/08 06:06:31;;;;;;;50.53;25.43;;;;;;;;;;5062720;28;20018;-78
2022/12/08 06:08:57;;;;;;;49.00;25.90;;;;;;;;;;5051319;28;20043;-78
2022/12/08 06:11:25;;;;;;;48.47;25.13;;;;;;;;;;5062684;28;20048;-77
2022/12/08 06:13:52;;;;;;;52.83;24.63;;;;;;;;;;5058803;28;20172;-78
2022/12/08 06:16:20;;;;;;;48.80;25.07;;;;;;;;;;5059185;28;20025;-78
2022/12/08 06:18:46;;;;;;;48.83;24.10;;;;;;;;;;5062943;28;21876;-78
2022/12/08 06:21:13;;;;;;;43.33;22.77;;;;;;;;;;5060369;28;20029;-77
2022/12/08 06:23:40;;;;;;;52.30;24.73;;;;;;;;;;5067200;28;20573;-78
2022/12/08 06:26:13;;;;;;;44.30;22.87;;;;;;;;;;5064519;28;20056;-77
2022/12/08 06:28:40;;;;;;;39.63;23.33;;;;;;;;;;5064199;28;20025;-79
2022/12/08 06:31:10;;;;;;;61.00;23.77;;;;;;;;;;5066155;28;20171;-78
2022/12/08 06:33:36;;;;;;;47.00;22.77;;;;;;;;;;5069367;28;20026;-78
2022/12/08 06:36:05;;;;;;;40.10;21.07;;;;;;;;;;5069496;28;20029;-77
2022/12/08 06:38:31;;;;;;;39.60;22.47;;;;;;;;;;5070746;28;20029;-78
2022/12/08 06:40:58;;;;;;;38.87;22.60;;;;;;;;;;5065190;28;20037;-78
2022/12/08 06:43:24;;;;;;;43.53;22.63;;;;;;;;;;5064172;28;20314;-78
2022/12/08 06:45:50;;;;;;;39.90;22.67;;;;;;;;;;5061102;28;20033;-79
2022/12/08 06:48:17;;;;;;;39.00;22.27;;;;;;;;;;5061684;28;20037;-78
2022/12/08 06:50:43;;;;;;;39.07;21.70;;;;;;;;;;5062901;28;20053;-77
2022/12/08 06:53:11;;;;;;;40.73;22.07;;;;;;;;;;5044362;28;20021;-77
2022/12/08 06:55:38;;;;;;;47.10;25.07;;;;;;;;;;5057490;28;20087;-78
2022/12/08 06:58:04;;;;;;;45.37;23.20;;;;;;;;;;5059319;28;20517;-77
2022/12/08 07:00:30;;;;;;;41.10;20.73;;;;;;;;;;5057435;28;22016;-78
2022/12/08 07:03:11;;;;;;;42.57;21.80;;;;;;;;;;5062387;28;20059;-78
2022/12/08 07:05:37;;;;;;;45.80;23.57;;;;;;;;;;5058885;28;20022;-79
2022/12/08 07:08:05;;;;;;;42.70;20.27;;;;;;;;;;5059883;28;20059;-78
2022/12/08 07:10:31;;;;;;;46.03;22.33;;;;;;;;;;5059905;28;20034;-78
2022/12/08 07:12:57;;;;;;;41.83;23.33;;;;;;;;;;5061726;28;20033;-78
2022/12/08 07:15:23;;;;;;;41.87;23.13;;;;;;;;;;5067132;28;20361;-78
2022/12/08 07:17:50;;;;;;;42.27;21.17;;;;;;;;;;5061840;28;20152;-79
2022/12/08 07:20:16;;;;;;;43.63;21.23;;;;;;;;;;5068367;28;20033;-78
2022/12/08 07:22:47;;;;;;;37.43;20.57;;;;;;;;;;5049070;28;20108;-79
2022/12/08 07:25:13;;;;;;;42.00;22.37;;;;;;;;;;5060731;28;20025;-79
2022/12/08 07:27:39;;;;;;;39.47;21.97;;;;;;;;;;5063021;28;20430;-78
2022/12/08 07:30:09;;;;;;;34.73;21.23;;;;;;;;;;5065953;28;20085;-79
2022/12/08 07:32:36;;;;;;;41.00;20.40;;;;;;;;;;5062767;28;20035;-78
2022/12/08 07:35:02;;;;;;;39.67;21.33;;;;;;;;;;5063806;28;20036;-78
2022/12/08 07:37:28;;;;;;;48.60;21.63;;;;;;;;;;5051235;28;20029;-78
2022/12/08 07:39:58;;;;;;;36.13;20.30;;;;;;;;;;5066109;28;20040;-78
2022/12/08 07:42:24;;;;;;;37.60;21.53;;;;;;;;;;5065227;28;20040;-78
2022/12/08 07:44:50;;;;;;;36.90;21.97;;;;;;;;;;5055003;28;20111;-79
2022/12/08 07:47:16;;;;;;;33.27;19.50;;;;;;;;;;5054027;28;20029;-79
2022/12/08 07:49:42;;;;;;;39.20;22.27;;;;;;;;;;5070645;28;20082;-79
2022/12/08 07:52:08;;;;;;;45.37;23.17;;;;;;;;;;5053876;28;20109;-78
2022/12/08 07:54:34;;;;;;;45.23;20.63;;;;;;;;;;5068471;28;20035;-78
2022/12/08 07:57:02;;;;;;;36.10;18.57;;;;;;;;;;5064761;28;20025;-77
2022/12/08 07:59:28;;;;;;;35.83;18.23;;;;;;;;;;5043776;28;20107;-78
2022/12/08 08:01:54;;;;;;;34.70;18.50;;;;;;;;;;5065148;28;20087;-77
2022/12/08 08:04:20;;;;;;;32.10;19.70;;;;;;;;;;5068053;28;20028;-78
2022/12/08 08:06:46;;;;;;;38.27;21.40;;;;;;;;;;5045103;28;20099;-78
2022/12/08 08:09:12;;;;;;;37.70;23.13;;;;;;;;;;5042636;28;20017;-78
2022/12/08 08:11:38;;;;;;;46.53;24.20;;;;;;;;;;5075006;28;20028;-78
2022/12/08 08:14:04;;;;;;;36.40;20.57;;;;;;;;;;5051130;28;20040;-78
2022/12/08 08:16:30;;;;;;;39.67;23.60;;;;;;;;;;5054765;28;20087;-78
2022/12/08 08:18:56;;;;;;;38.23;22.50;;;;;;;;;;5052159;28;20071;-77
2022/12/08 08:21:22;;;;;;;40.90;23.23;;;;;;;;;;5067271;28;20091;-78
2022/12/08 08:23:48;;;;;;;38.03;21.93;;;;;;;;;;5070507;28;20134;-78
2022/12/08 08:26:14;;;;;;;42.10;22.13;;;;;;;;;;5042549;28;20033;-78
2022/12/08 08:28:42;;;;;;;37.53;23.37;;;;;;;;;;5073801;28;20021;-78
2022/12/08 08:31:08;;;;;;;35.43;22.63;;;;;;;;;;5045706;28;20093;-78
2022/12/08 08:33:37;;;;;;;36.67;20.60;;;;;;;;;;5060224;28;20025;-78
2022/12/08 08:36:06;;;;;;;31.67;16.37;;;;;;;;;;5055171;28;20085;-77
2022/12/08 08:38:32;;;;;;;34.37;19.63;;;;;;;;;;5081868;28;20031;-77
2022/12/08 08:41:01;;;;;;;33.23;19.63;;;;;;;;;;5055717;28;20063;-78
2022/12/08 08:43:27;;;;;;;34.57;20.23;;;;;;;;;;5068546;28;20393;-79
2022/12/08 08:46:00;;;;;;;32.87;18.20;;;;;;;;;;5056820;28;20021;-78
2022/12/08 08:48:27;;;;;;;29.57;17.23;;;;;;;;;;5054436;28;20118;-78
2022/12/08 08:50:53;;;;;;;37.57;18.90;;;;;;;;;;5057911;28;20036;-78
2022/12/08 08:53:19;;;;;;;28.40;17.27;;;;;;;;;;5058730;28;20144;-78
2022/12/08 08:55:46;;;;;;;29.13;17.07;;;;;;;;;;5067430;28;20120;-79
2022/12/08 08:58:12;;;;;;;29.07;16.73;;;;;;;;;;5050721;28;20037;-78
2022/12/08 09:00:38;;;;;;;29.00;16.57;;;;;;;;;;5067132;28;20032;-78
2022/12/08 09:03:04;;;;;;;30.47;17.03;;;;;;;;;;5046719;28;20083;-78
2022/12/08 09:05:30;;;;;;;28.93;17.23;;;;;;;;;;5066387;28;20029;-78
2022/12/08 09:07:56;;;;;;;30.20;14.57;;;;;;;;;;5071614;28;20041;-78
2022/12/08 09:10:22;;;;;;;31.13;15.07;;;;;;;;;;5053071;28;20021;-78
2022/12/08 09:12:49;;;;;;;26.33;13.73;;;;;;;;;;5054216;28;20045;-78
2022/12/08 09:15:16;;;;;;;25.27;14.80;;;;;;;;;;5053567;28;20037;-78
2022/12/08 09:17:44;;;;;;;31.13;15.10;;;;;;;;;;5061178;28;20049;-79
2022/12/08 09:20:10;;;;;;;23.43;14.10;;;;;;;;;;5064465;28;20033;-77
2022/12/08 09:22:36;;;;;;;23.00;14.40;;;;;;;;;;5047627;28;20043;-79
2022/12/08 09:25:02;;;;;;;19.97;12.10;;;;;;;;;;5071364;28;20042;-78
2022/12/08 09:27:28;;;;;;;26.03;13.50;;;;;;;;;;5055378;28;20029;-78
2022/12/08 09:29:54;;;;;;;23.33;12.20;;;;;;;;;;5070432;28;20033;-78
2022/12/08 09:32:20;;;;;;;20.47;12.37;;;;;;;;;;5072057;28;20408;-78
2022/12/08 09:34:46;;;;;;;16.63;10.53;;;;;;;;;;5061536;28;20017;-79
2022/12/08 09:37:13;;;;;;;20.30;10.50;;;;;;;;;;5065333;28;20361;-79
2022/12/08 09:39:39;;;;;;;24.10;12.20;;;;;;;;;;5061762;28;20037;-79
2022/12/08 09:42:05;;;;;;;16.73;10.70;;;;;;;;;;5068198;28;20106;-79
2022/12/08 09:44:40;;;;;;;17.83;11.00;;;;;;;;;;5060955;28;20025;-78
2022/12/08 09:47:13;;;;;;;19.93;10.83;;;;;;;;;;5061492;28;20029;-79
2022/12/08 09:49:42;;;;;;;22.13;9.48;;;;;;;;;;5071939;28;20087;-79
2022/12/08 09:52:40;;;;;;;18.40;9.07;;;;;;;;;;5051547;28;20025;-78
2022/12/08 09:55:19;;;;;;;12.40;7.20;;;;;;;;;;5039100;28;20036;-79
2022/12/08 09:57:49;;;;;;;11.97;5.50;;;;;;;;;;5064519;28;20021;-79
2022/12/08 10:00:16;;;;;;;9.43;5.10;;;;;;;;;;5052801;28;20021;-79
2022/12/08 10:02:45;;;;;;;9.80;3.90;;;;;;;;;;5044397;28;20027;-78
2022/12/08 10:05:13;;;;;;;10.87;5.03;;;;;;;;;;5059353;28;20032;-77
2022/12/08 10:08:02;;;;;;;8.70;5.40;;;;;;;;;;5065718;28;20059;-77
2022/12/08 10:10:39;;;;;;;12.50;5.67;;;;;;;;;;5066377;28;20021;-78
2022/12/08 10:13:05;;;;;;;9.73;5.40;;;;;;;;;;5066291;28;20033;-78
2022/12/08 10:15:31;;;;;;;15.03;7.20;;;;;;;;;;5064624;28;20044;-79
2022/12/08 10:18:00;;;;;;;9.97;7.20;;;;;;;;;;5059428;28;20527;-79
2022/12/08 10:20:28;;;;;;;13.73;7.33;;;;;;;;;;5050891;28;20052;-78
2022/12/08 10:23:13;;;;;;;15.60;8.40;;;;;;;;;;5059929;28;20034;-79
2022/12/08 10:25:44;;;;;;;12.73;8.27;;;;;;;;;;5063578;28;20025;-78
2022/12/08 10:28:10;;;;;;;16.70;8.53;;;;;;;;;;5066040;28;20021;-79
2022/12/08 10:30:36;;;;;;;16.93;9.00;;;;;;;;;;5070737;28;20052;-79
2022/12/08 10:33:03;;;;;;;18.30;9.33;;;;;;;;;;5064883;28;20025;-78
2022/12/08 10:35:42;;;;;;;17.60;9.50;;;;;;;;;;5079609;28;20056;-78
2022/12/08 10:38:15;;;;;;;19.43;10.10;;;;;;;;;;5058269;28;20029;-78
2022/12/08 10:40:43;;;;;;;19.15;11.85;;;;;;;;;;5054937;28;20044;-78
2022/12/08 10:43:13;;;;;;;19.00;10.93;;;;;;;;;;5070742;28;20036;-78
2022/12/08 10:45:40;;;;;;;20.07;10.17;;;;;;;;;;5054621;28;20021;-79
2022/12/08 10:48:21;;;;;;;16.53;9.80;;;;;;;;;;5062971;28;20464;-79
2022/12/08 10:50:58;;;;;;;16.03;8.50;;;;;;;;;;5077104;28;20025;-78
2022/12/08 10:53:28;;;;;;;16.87;8.43;;;;;;;;;;5064500;28;20040;-78
2022/12/08 10:55:57;;;;;;;16.47;7.90;;;;;;;;;;5071126;28;20021;-77
2022/12/08 10:58:39;;;;;;;17.37;9.93;;;;;;;;;;5059042;28;20037;-78
2022/12/08 11:01:05;;;;;;;26.23;11.00;;;;;;;;;;5068135;28;20121;-78
2022/12/08 11:03:33;;;;;;;17.60;8.60;;;;;;;;;;5056054;28;20462;-78
2022/12/08 11:06:01;;;;;;;14.17;8.50;;;;;;;;;;5048800;28;20502;-78
2022/12/08 11:08:28;;;;;;;14.13;7.73;;;;;;;;;;5052667;28;20052;-77
2022/12/08 11:10:55;;;;;;;16.97;8.93;;;;;;;;;;5062364;28;20028;-78
2022/12/08 11:13:25;;;;;;;14.80;8.07;;;;;;;;;;5051594;28;20085;-78
2022/12/08 11:15:52;;;;;;;9.60;5.80;;;;;;;;;;5065269;28;20056;-77
2022/12/08 11:18:27;;;;;;;10.27;5.07;;;;;;;;;;5060407;28;20041;-78
2022/12/08 11:20:58;;;;;;;6.70;4.80;;;;;;;;;;5061652;28;20033;-78
2022/12/08 11:23:25;;;;;;;10.63;6.07;;;;;;;;;;5059185;28;20033;-78
2022/12/08 11:25:53;;;;;;;13.83;6.87;;;;;;;;;;5061131;28;20059;-78
2022/12/08 11:28:22;;;;;;;12.37;6.93;;;;;;;;;;5057807;28;20040;-77
2022/12/08 11:30:53;;;;;;;14.97;6.40;;;;;;;;;;5061118;28;20048;-77
2022/12/08 11:33:19;;;;;;;13.17;6.93;;;;;;;;;;5059875;28;20029;-80
2022/12/08 11:35:47;;;;;;;8.57;5.83;;;;;;;;;;5058315;28;20051;-78
2022/12/08 11:38:22;;;;;;;14.63;6.53;;;;;;;;;;5059975;28;20026;-77
2022/12/08 11:40:51;;;;;;;13.87;6.23;;;;;;;;;;5064376;28;20040;-77
2022/12/08 11:43:20;;;;;;;12.10;6.30;;;;;;;;;;5058593;28;20029;-78
2022/12/08 11:45:50;;;;;;;16.93;6.13;;;;;;;;;;5058705;28;20033;-78
2022/12/08 11:48:19;;;;;;;12.33;6.37;;;;;;;;;;5056118;28;20028;-78
2022/12/08 11:50:51;;;;;;;15.57;6.57;;;;;;;;;;5062017;28;20036;-77
2022/12/08 11:53:26;;;;;;;14.75;5.95;;;;;;;;;;5056870;28;20053;-76
2022/12/08 11:55:56;;;;;;;9.10;5.20;;;;;;;;;;5061532;28;20449;-77
2022/12/08 11:58:26;;;;;;;15.30;5.57;;;;;;;;;;5057596;28;20052;-78
2022/12/08 12:00:52;;;;;;;10.73;5.57;;;;;;;;;;5060275;28;20361;-77
2022/12/08 12:03:18;;;;;;;12.73;5.97;;;;;;;;;;5058206;28;20055;-78
2022/12/08 12:06:02;;;;;;;11.53;6.30;;;;;;;;;;5056334;28;20120;-78
2022/12/08 12:08:31;;;;;;;12.73;6.87;;;;;;;;;;5066255;28;20025;-77
2022/12/08 12:11:05;;;;;;;15.97;8.27;;;;;;;;;;5054820;28;20037;-76
2022/12/08 12:13:31;;;;;;;16.90;8.43;;;;;;;;;;5062409;28;20040;-76
2022/12/08 12:15:57;;;;;;;12.50;8.53;;;;;;;;;;5058897;28;20029;-76
2022/12/08 12:18:26;;;;;;;19.40;9.57;;;;;;;;;;5056393;28;20036;-77
2022/12/08 12:20:55;;;;;;;22.03;10.07;;;;;;;;;;5061224;28;20365;-78
2022/12/08 12:23:36;;;;;;;19.67;10.57;;;;;;;;;;5040121;28;20017;-76
2022/12/08 12:26:04;;;;;;;19.80;10.80;;;;;;;;;;5053161;28;20029;-78
2022/12/08 12:28:56;;;;;;;17.93;10.70;;;;;;;;;;5055516;28;20461;-77
2022/12/08 12:31:25;;;;;;;20.92;11.90;;;;;;;;;;5029770;28;20446;-77
2022/12/08 12:33:53;;;;;;;20.03;10.47;;;;;;;;;;5041580;28;20057;-77
2022/12/08 12:36:19;;;;;;;24.63;11.30;;;;;;;;;;5058310;28;20449;-77
2022/12/08 12:39:04;;;;;;;22.03;10.10;;;;;;;;;;5057549;28;20086;-77
2022/12/08 12:41:34;;;;;;;20.33;10.23;;;;;;;;;;5058945;28;20025;-77
2022/12/08 12:44:10;;;;;;;25.37;10.70;;;;;;;;;;5058811;28;20033;-77
2022/12/08 12:46:48;;;;;;;21.73;10.67;;;;;;;;;;5063395;28;20063;-78
2022/12/08 12:49:35;;;;;;;22.20;10.13;;;;;;;;;;5059382;28;20022;-79
2022/12/08 12:52:03;;;;;;;21.60;8.60;;;;;;;;;;5060637;28;20029;-78
2022/12/08 12:54:30;;;;;;;21.37;8.13;;;;;;;;;;5042292;28;20052;-78
2022/12/08 12:57:05;;;;;;;18.23;9.20;;;;;;;;;;5057794;28;20029;-79
2022/12/08 12:59:34;;;;;;;15.90;8.30;;;;;;;;;;5058271;28;20028;-77
2022/12/08 13:02:01;;;;;;;16.43;8.47;;;;;;;;;;5062391;28;20048;-78
2022/12/08 13:04:37;;;;;;;22.87;9.60;;;;;;;;;;5044346;28;20374;-79
2022/12/08 13:07:03;;;;;;;20.17;7.67;;;;;;;;;;5062402;28;20482;-78
2022/12/08 13:09:32;;;;;;;17.80;9.07;;;;;;;;;;5058917;28;20018;-78
2022/12/08 13:12:02;;;;;;;12.90;7.27;;;;;;;;;;5054956;28;20037;-78
2022/12/08 13:14:30;;;;;;;20.00;7.67;;;;;;;;;;5059019;28;20025;-78
2022/12/08 13:16:58;;;;;;;18.83;8.30;;;;;;;;;;5054029;28;20445;-78
2022/12/08 13:19:24;;;;;;;13.90;7.87;;;;;;;;;;5053861;28;20032;-79
2022/12/08 13:21:52;;;;;;;18.73;7.37;;;;;;;;;;5061861;28;20029;-78
2022/12/08 13:24:24;;;;;;;12.90;7.60;;;;;;;;;;5070121;28;20112;-77
2022/12/08 13:26:50;;;;;;;13.75;6.85;;;;;;;;;;5075890;28;20406;-77
2022/12/08 13:29:17;;;;;;;16.43;7.13;;;;;;;;;;5063017;28;20035;-77
2022/12/08 13:31:43;;;;;;;15.23;6.90;;;;;;;;;;5062388;28;20027;-78
2022/12/08 13:34:20;;;;;;;16.37;7.60;;;;;;;;;;5052455;28;20361;-78
2022/12/08 13:36:59;;;;;;;11.63;7.00;;;;;;;;;;5077549;28;20025;-79
2022/12/08 13:39:31;;;;;;;19.93;7.43;;;;;;;;;;5061324;28;20120;-78
2022/12/08 13:42:00;;;;;;;12.05;6.72;;;;;;;;;;5054439;28;20060;-78
2022/12/08 13:44:31;;;;;;;19.93;7.53;;;;;;;;;;5076079;28;20041;-79
2022/12/08 13:46:57;;;;;;;10.10;6.90;;;;;;;;;;5070359;28;20021;-79
2022/12/08 13:49:33;;;;;;;14.63;7.10;;;;;;;;;;5064843;28;20323;-78
2022/12/08 13:52:00;;;;;;;13.73;7.60;;;;;;;;;;5076870;28;20021;-78
2022/12/08 13:54:26;;;;;;;15.30;7.10;;;;;;;;;;5080507;28;20033;-78
2022/12/08 13:56:52;;;;;;;17.43;7.00;;;;;;;;;;5064546;28;20033;-78
2022/12/08 13:59:18;;;;;;;14.97;6.80;;;;;;;;;;5076265;28;20099;-78
2022/12/08 14:01:49;;;;;;;16.17;6.27;;;;;;;;;;5053891;28;20072;-78
2022/12/08 14:04:20;;;;;;;16.87;6.70;;;;;;;;;;5075738;28;20091;-77
2022/12/08 14:06:47;;;;;;;14.23;6.27;;;;;;;;;;5065050;28;20132;-77
2022/12/08 14:09:18;;;;;;;14.73;6.33;;;;;;;;;;5069926;28;20052;-78
2022/12/08 14:11:52;;;;;;;13.77;6.67;;;;;;;;;;5069414;28;20040;-78
2022/12/08 14:14:27;;;;;;;12.80;6.07;;;;;;;;;;5063393;28;20029;-79
2022/12/08 14:16:55;;;;;;;13.37;6.83;;;;;;;;;;5063087;28;20040;-77
2022/12/08 14:19:21;;;;;;;9.40;6.70;;;;;;;;;;5059966;28;20029;-78
2022/12/08 14:21:50;;;;;;;14.80;6.87;;;;;;;;;;5052004;28;20131;-78
2022/12/08 14:24:16;;;;;;;15.63;6.67;;;;;;;;;;5064294;28;20021;-78
2022/12/08 14:26:44;;;;;;;16.13;5.97;;;;;;;;;;5073377;28;20082;-78
2022/12/08 14:29:11;;;;;;;14.57;6.43;;;;;;;;;;5062785;28;20044;-77
2022/12/08 14:31:37;;;;;;;12.37;6.30;;;;;;;;;;5049922;28;20017;-79
2022/12/08 14:34:03;;;;;;;15.77;6.00;;;;;;;;;;5044271;28;20060;-79
2022/12/08 14:36:32;;;;;;;16.10;6.63;;;;;;;;;;5067667;28;20346;-78